createdAt,value
2022-11-24T00:00:00.774Z,0
2022-11-24T00:16:03.295Z,0
2022-11-24T00:31:00.624Z,0
2022-11-24T00:46:03.004Z,0
2022-11-24T00:59:59.823Z,0
2022-11-24T01:16:02.396Z,0
2022-11-24T01:30:59.782Z,0
2022-11-24T01:46:01.953Z,0
2022-11-24T02:00:03.938Z,0
2022-11-24T02:16:01.437Z,0
2022-11-24T02:31:03.806Z,0
2022-11-24T02:46:01.026Z,0
2022-11-24T03:00:03.045Z,0
2022-11-24T03:16:00.682Z,0
2022-11-24T03:31:02.923Z,0
2022-11-24T03:46:00.305Z,0
2022-11-24T04:00:02.285Z,0
2022-11-24T04:15:59.778Z,0
2022-11-24T04:31:02.203Z,0
2022-11-24T04:46:04.458Z,0
2022-11-24T05:00:01.365Z,0
2022-11-24T05:16:03.892Z,0
2022-11-24T05:31:01.112Z,0
2022-11-24T05:46:03.298Z,0
2022-11-24T06:00:00.331Z,0
2022-11-24T06:16:02.797Z,0
2022-11-24T06:31:00.024Z,0
2022-11-24T06:46:02.403Z,2
2022-11-24T07:00:04.418Z,8
2022-11-24T07:16:01.967Z,14
2022-11-24T07:31:04.147Z,23
2022-11-24T07:46:02.185Z,36
2022-11-24T08:00:03.481Z,49
2022-11-24T08:16:00.832Z,63
2022-11-24T08:31:03.171Z,148
2022-11-24T08:46:00.421Z,117
2022-11-24T09:00:02.618Z,93
2022-11-24T09:15:59.923Z,118
2022-11-24T09:31:02.399Z,170
2022-11-24T09:46:06.892Z,187
2022-11-24T10:00:01.847Z,213
2022-11-24T10:16:04.245Z,184
2022-11-24T10:31:01.633Z,178
2022-11-24T10:46:03.902Z,227
2022-11-24T11:00:00.964Z,231
2022-11-24T11:16:03.374Z,198
2022-11-24T11:31:18.439Z,264
2022-11-24T11:46:03.061Z,328
2022-11-24T12:00:00.089Z,278
2022-11-24T12:16:02.517Z,186
2022-11-24T12:30:59.914Z,205
2022-11-24T12:46:02.272Z,231
2022-11-24T13:00:04.413Z,250
2022-11-24T13:31:04.068Z,104
2022-11-24T13:46:01.468Z,93
2022-11-24T14:00:03.417Z,78
2022-11-24T14:16:00.916Z,76
2022-11-24T14:31:03.269Z,73
2022-11-24T14:46:00.518Z,58
2022-11-24T15:00:02.817Z,39
2022-11-24T15:16:02.938Z,26
2022-11-24T15:31:02.538Z,11
2022-11-24T15:45:59.784Z,0
2022-11-24T16:00:01.983Z,0
2022-11-24T16:16:04.331Z,0
2022-11-24T16:31:01.729Z,0
2022-11-24T16:46:03.777Z,0
2022-11-24T17:00:00.842Z,0
2022-11-24T17:16:03.280Z,0
2022-11-24T17:31:00.525Z,0
2022-11-24T17:46:02.968Z,0
2022-11-24T18:00:00.182Z,0
2022-11-24T18:16:02.690Z,0
2022-11-24T18:30:59.981Z,0
2022-11-24T18:46:02.202Z,0
2022-11-24T19:00:04.235Z,0
2022-11-24T19:16:01.549Z,0
2022-11-24T19:31:03.963Z,0
2022-11-24T19:46:01.299Z,0
2022-11-24T20:00:03.370Z,0
2022-11-24T20:16:01.075Z,0
2022-11-24T20:31:03.259Z,0
2022-11-24T20:46:00.525Z,0
2022-11-24T21:00:02.745Z,0
2022-11-24T21:16:00.133Z,0
2022-11-24T21:31:02.297Z,0
2022-11-24T21:45:59.634Z,0
2022-11-24T22:00:01.946Z,0
2022-11-24T22:16:04.331Z,0
2022-11-24T22:31:01.514Z,0
2022-11-24T22:46:20.536Z,0
2022-11-24T23:00:00.903Z,0
2022-11-24T23:16:03.299Z,0
2022-11-24T23:31:00.480Z,0
2022-11-24T23:46:02.677Z,0
2022-11-24T23:59:59.710Z,0
